Time;durP1;ratioP1;P1;durP2;ratioP2;P2;SDS_P1;SDS_P2;PMS_P1;PMS_P2;Temp;Humidity;BMP_temperature;BMP_pressure;BME280_temperature;BME280_humidity;BME280_pressure;Samples;Min_cycle;Max_cycle;Signal;HPM_P1;HPM_P2
2022/08/08 00:01:50;;;;;;;5.55;4.18;;;16.70;97.60;;;;;;5046479;28;20493;-69
2022/08/08 00:04:36;;;;;;;5.22;4.57;;;16.70;98.00;;;;;;5042025;28;20116;-69
2022/08/08 00:07:27;;;;;;;6.63;4.72;;;16.70;97.40;;;;;;5045913;28;20100;-69
2022/08/08 00:10:13;;;;;;;9.27;5.35;;;16.70;98.40;;;;;;5045573;28;20040;-69
2022/08/08 00:12:47;;;;;;;5.85;3.88;;;16.70;98.40;;;;;;5042366;28;20029;-69
2022/08/08 00:15:25;;;;;;;5.05;4.40;;;16.60;98.40;;;;;;5048583;28;20036;-69
2022/08/08 00:18:00;;;;;;;6.43;4.15;;;16.50;98.50;;;;;;5049724;28;20036;-69
2022/08/08 00:20:38;;;;;;;6.40;4.30;;;16.60;97.90;;;;;;5050434;28;20429;-69
2022/08/08 00:23:40;;;;;;;6.13;4.15;;;16.50;98.00;;;;;;5048376;28;20040;-69
2022/08/08 00:26:09;;;;;;;5.50;3.97;;;16.50;98.20;;;;;;5048245;28;20025;-69
2022/08/08 00:28:47;;;;;;;5.55;4.43;;;16.40;98.70;;;;;;5049673;28;20043;-69
2022/08/08 00:31:31;;;;;;;6.80;4.15;;;16.40;99.10;;;;;;5046281;28;20029;-69
2022/08/08 00:37:29;;;;;;;5.60;3.70;;;16.40;98.60;;;;;;5048647;28;20031;-69
2022/08/08 00:40:19;;;;;;;5.03;3.95;;;17.30;99.50;;;;;;5052748;28;20027;-69
2022/08/08 00:43:17;;;;;;;5.50;4.18;;;16.30;98.60;;;;;;5051324;28;20368;-70
2022/08/08 00:46:15;;;;;;;8.45;4.47;;;16.30;98.80;;;;;;5034440;28;20083;-70
2022/08/08 00:49:38;;;;;;;6.10;4.00;;;16.20;98.90;;;;;;5050315;28;20038;-70
2022/08/08 00:52:11;;;;;;;11.30;4.50;;;16.20;99.00;;;;;;5007840;28;20041;-69
2022/08/08 00:54:52;;;;;;;;;;;16.20;98.40;;;;;;5005118;28;20034;-69
2022/08/08 00:57:42;;;;;;;4.20;3.67;;;16.10;99.00;;;;;;5007810;28;19909;-69
2022/08/08 01:00:15;;;;;;;5.70;3.88;;;16.10;99.00;;;;;;5009079;28;20054;-69
2022/08/08 01:02:59;;;;;;;6.07;4.55;;;16.00;98.90;;;;;;4998140;28;20057;-69
2022/08/08 01:05:27;;;;;;;9.15;5.53;;;16.10;99.90;;;;;;4992910;28;20521;-69
2022/08/08 01:08:28;;;;;;;5.20;4.70;;;16.00;99.90;;;;;;5009577;28;20037;-69
2022/08/08 01:11:42;;;;;;;6.57;4.60;;;16.00;99.60;;;;;;5009412;28;20033;-69
2022/08/08 01:14:50;;;;;;;9.40;4.28;;;15.90;99.70;;;;;;5007924;28;20022;-70
2022/08/08 01:17:18;;;;;;;5.25;4.55;;;15.90;99.80;;;;;;4969223;28;20062;-69
2022/08/08 01:20:32;;;;;;;5.45;4.95;;;15.90;99.90;;;;;;4970540;28;20498;-69
2022/08/08 01:23:07;;;;;;;5.38;4.80;;;15.90;99.90;;;;;;4991437;28;20064;-70
2022/08/08 01:26:10;;;;;;;7.03;3.92;;;15.80;99.90;;;;;;5009044;28;20084;-69
2022/08/08 01:29:01;;;;;;;6.05;4.68;;;15.80;99.90;;;;;;5001944;28;20046;-69
2022/08/08 01:32:00;;;;;;;5.88;4.57;;;15.80;99.90;;;;;;5007997;28;20065;-69
2022/08/08 01:34:49;;;;;;;5.88;4.70;;;15.70;99.90;;;;;;5012423;28;20117;-69
2022/08/08 01:37:57;;;;;;;7.85;4.60;;;15.70;99.90;;;;;;5008599;28;20506;-70
2022/08/08 01:41:07;;;;;;;7.35;5.80;;;15.60;99.90;;;;;;4999689;28;20495;-69
2022/08/08 01:43:41;;;;;;;4.50;4.07;;;15.60;99.90;;;;;;4978704;28;20131;-69
2022/08/08 01:46:34;;;;;;;12.15;5.03;;;15.60;99.90;;;;;;5015758;28;20037;-69
2022/08/08 01:49:16;;;;;;;7.88;4.82;;;15.60;99.90;;;;;;5014589;28;20125;-70
2022/08/08 01:51:53;;;;;;;5.60;4.90;;;15.50;99.90;;;;;;5012756;28;20391;-69
2022/08/08 01:54:41;;;;;;;11.73;5.28;;;16.20;99.90;;;;;;5021460;28;20508;-69
2022/08/08 01:57:09;;;;;;;6.43;4.75;;;15.60;99.90;;;;;;5048840;28;20056;-68
2022/08/08 01:59:52;;;;;;;7.07;4.80;;;15.40;99.90;;;;;;5050605;28;20025;-69
2022/08/08 02:02:56;;;;;;;6.45;5.63;;;15.50;99.90;;;;;;5049577;28;20033;-68
2022/08/08 02:06:04;;;;;;;8.75;5.82;;;15.30;99.90;;;;;;5048829;28;20359;-68
2022/08/08 02:08:52;;;;;;;6.50;5.10;;;15.30;99.90;;;;;;5033351;28;20405;-68
2022/08/08 02:11:41;;;;;;;4.97;4.47;;;16.30;99.90;;;;;;5028622;28;20040;-68
2022/08/08 02:14:13;;;;;;;5.95;4.70;;;15.20;99.90;;;;;;5049986;28;20021;-68
2022/08/08 02:16:57;;;;;;;7.13;5.45;;;15.30;99.90;;;;;;5039934;28;20128;-69
2022/08/08 02:19:48;;;;;;;7.35;4.80;;;15.10;99.90;;;;;;5049813;28;20025;-68
2022/08/08 02:22:32;;;;;;;7.15;5.28;;;14.90;99.90;;;;;;5049704;28;20024;-68
2022/08/08 02:25:14;;;;;;;7.93;5.32;;;15.10;99.90;;;;;;5047913;28;20051;-68
2022/08/08 02:27:54;;;;;;;6.47;4.70;;;14.90;99.90;;;;;;5049957;28;20366;-68
2022/08/08 02:30:30;;;;;;;5.82;5.18;;;15.00;99.90;;;;;;5048013;28;20032;-69
2022/08/08 02:33:09;;;;;;;8.50;5.30;;;15.00;99.90;;;;;;5049750;28;20048;-68
2022/08/08 02:35:59;;;;;;;6.05;4.82;;;15.10;99.90;;;;;;5048783;28;20012;-69
2022/08/08 02:38:42;;;;;;;7.32;4.47;;;15.10;99.90;;;;;;5049602;28;20108;-68
2022/08/08 02:41:26;;;;;;;6.78;5.03;;;15.20;99.90;;;;;;5049540;28;20098;-69
2022/08/08 02:44:00;;;;;;;7.10;5.57;;;15.10;99.90;;;;;;5032032;28;20493;-69
2022/08/08 02:46:42;;;;;;;6.38;5.70;;;15.10;99.90;;;;;;5033909;28;20030;-68
2022/08/08 02:49:30;;;;;;;7.20;5.28;;;15.00;99.90;;;;;;5045830;28;20497;-68
2022/08/08 02:52:07;;;;;;;6.38;5.15;;;14.90;99.90;;;;;;5044939;28;20355;-69
2022/08/08 02:54:55;;;;;;;7.32;5.43;;;15.00;99.90;;;;;;5037944;28;20036;-69
2022/08/08 02:57:42;;;;;;;7.45;5.35;;;15.00;99.90;;;;;;5026241;28;20037;-68
2022/08/08 03:00:22;;;;;;;7.75;5.40;;;14.90;99.90;;;;;;5045942;28;20510;-69
2022/08/08 03:03:41;;;;;;;8.90;5.20;;;15.00;99.90;;;;;;5049997;28;20152;-69
2022/08/08 03:06:31;;;;;;;6.15;5.05;;;14.90;99.90;;;;;;5038446;28;20090;-68
2022/08/08 03:09:12;;;;;;;6.65;5.97;;;14.80;99.90;;;;;;5048786;28;20039;-68
2022/08/08 03:11:57;;;;;;;6.88;5.57;;;14.80;99.90;;;;;;5049688;28;20028;-68
2022/08/08 03:14:33;;;;;;;;;;;14.80;99.90;;;;;;5049437;28;20036;-69
2022/08/08 03:17:02;;;;;;;6.28;4.85;;;14.70;99.90;;;;;;5049473;28;19916;-68
2022/08/08 03:19:53;;;;;;;7.30;5.43;;;14.80;99.90;;;;;;5051151;28;20032;-68
2022/08/08 03:22:18;;;;;;;6.00;4.82;;;14.70;99.90;;;;;;5051925;28;20535;-69
2022/08/08 03:24:44;;;;;;;7.93;5.22;;;14.60;99.90;;;;;;5053780;28;20017;-69
2022/08/08 03:27:19;;;;;;;5.55;5.05;;;14.70;99.90;;;;;;5052888;28;20028;-68
2022/08/08 03:29:51;;;;;;;10.23;5.15;;;14.60;99.90;;;;;;5052979;28;20085;-68
2022/08/08 03:35:04;;;;;;;8.48;5.75;;;15.70;99.90;;;;;;5053436;28;20039;-68
2022/08/08 03:37:30;;;;;;;11.85;6.30;;;14.50;99.90;;;;;;5041989;28;20053;-68
2022/08/08 03:39:57;;;;;;;5.85;5.35;;;14.50;99.90;;;;;;5052846;28;20059;-68
2022/08/08 03:42:22;;;;;;;9.82;6.40;;;14.50;99.90;;;;;;5052624;28;20100;-68
2022/08/08 03:44:48;;;;;;;7.13;6.43;;;14.40;99.90;;;;;;5042557;28;20120;-68
2022/08/08 03:47:19;;;;;;;6.40;5.80;;;14.60;99.90;;;;;;5052534;28;20037;-68
2022/08/08 03:49:45;;;;;;;8.93;5.40;;;14.50;99.90;;;;;;5042560;28;20423;-68
2022/08/08 03:52:10;;;;;;;8.40;6.22;;;14.50;99.90;;;;;;5052347;28;20025;-69
2022/08/08 03:54:36;;;;;;;10.88;5.78;;;14.40;99.90;;;;;;5051677;28;20116;-68
2022/08/08 03:57:02;;;;;;;9.00;6.30;;;14.20;99.90;;;;;;5052065;28;20500;-68
2022/08/08 03:59:29;;;;;;;9.55;6.00;;;14.40;99.90;;;;;;5052305;28;20210;-68
2022/08/08 04:01:54;;;;;;;6.72;5.97;;;14.40;99.90;;;;;;5051995;28;20088;-68
2022/08/08 04:04:20;;;;;;;7.15;5.43;;;14.50;99.90;;;;;;5052776;28;20032;-69
2022/08/08 04:06:56;;;;;;;7.35;5.82;;;14.60;99.90;;;;;;5043103;28;20398;-68
2022/08/08 04:09:21;;;;;;;7.78;5.97;;;14.50;99.90;;;;;;5040085;28;20044;-68
2022/08/08 04:11:47;;;;;;;6.57;5.20;;;14.30;99.90;;;;;;5052194;28;20029;-68
2022/08/08 04:14:13;;;;;;;7.72;5.35;;;14.40;99.90;;;;;;5049050;28;20611;-68
2022/08/08 04:16:38;;;;;;;6.90;5.57;;;14.60;99.90;;;;;;5052700;28;20064;-68
2022/08/08 04:19:04;;;;;;;6.13;5.40;;;14.50;99.90;;;;;;5052284;28;20021;-68
2022/08/08 04:21:29;;;;;;;6.80;5.15;;;14.60;99.90;;;;;;5052211;28;20031;-68
2022/08/08 04:23:55;;;;;;;8.48;5.88;;;14.40;99.90;;;;;;5052174;28;20033;-68
2022/08/08 04:26:20;;;;;;;9.32;5.68;;;14.60;99.90;;;;;;5051792;28;20021;-68
2022/08/08 04:28:46;;;;;;;5.95;5.22;;;14.40;99.90;;;;;;5052329;28;20504;-69
2022/08/08 04:31:11;;;;;;;7.55;6.32;;;14.60;99.90;;;;;;5050453;28;20029;-68
2022/08/08 04:33:37;;;;;;;6.07;5.22;;;14.50;99.90;;;;;;5050880;28;20022;-68
2022/08/08 04:36:02;;;;;;;9.65;5.60;;;14.60;99.90;;;;;;5050322;28;20021;-68
2022/08/08 04:38:28;;;;;;;6.45;5.43;;;14.50;99.90;;;;;;5050557;28;20094;-69
2022/08/08 04:40:53;;;;;;;6.18;5.07;;;14.50;99.90;;;;;;5051276;28;20021;-68
2022/08/08 04:43:19;;;;;;;6.07;5.35;;;14.50;99.90;;;;;;5051511;28;20053;-68
2022/08/08 04:45:45;;;;;;;6.72;5.28;;;14.40;99.90;;;;;;5052201;28;20029;-69
2022/08/08 04:48:10;;;;;;;8.60;5.75;;;14.40;99.90;;;;;;5051382;28;20044;-68
2022/08/08 04:50:36;;;;;;;7.30;4.78;;;14.30;99.90;;;;;;5052114;28;20100;-69
2022/08/08 04:53:01;;;;;;;5.75;5.05;;;14.50;99.90;;;;;;5051706;28;20029;-68
2022/08/08 04:55:27;;;;;;;5.53;5.03;;;14.60;99.90;;;;;;5051060;28;20375;-68
2022/08/08 04:57:55;;;;;;;5.30;4.38;;;14.40;99.90;;;;;;5051848;28;20032;-68
2022/08/08 05:00:23;;;;;;;6.65;4.90;;;14.50;99.90;;;;;;5050991;28;20119;-68
2022/08/08 05:02:49;;;;;;;6.28;4.97;;;14.50;99.90;;;;;;5041526;28;20028;-69
2022/08/08 05:05:16;;;;;;;5.90;4.18;;;14.60;99.90;;;;;;5051140;28;20041;-68
2022/08/08 05:07:42;;;;;;;5.80;4.70;;;14.70;99.90;;;;;;5051733;28;20029;-69
2022/08/08 05:10:07;;;;;;;8.40;4.45;;;14.90;99.90;;;;;;5050383;28;20524;-69
2022/08/08 05:12:33;;;;;;;6.70;4.28;;;14.90;99.90;;;;;;5063633;28;20086;-68
2022/08/08 05:14:58;;;;;;;5.65;4.57;;;14.70;99.90;;;;;;5049717;28;20021;-68
2022/08/08 05:17:24;;;;;;;6.68;4.30;;;15.10;99.90;;;;;;5050493;28;20458;-68
2022/08/08 05:19:50;;;;;;;6.05;3.92;;;14.90;99.90;;;;;;5051480;28;20428;-69
2022/08/08 05:22:15;;;;;;;5.07;4.60;;;15.00;99.90;;;;;;5050053;28;20036;-68
2022/08/08 05:24:41;;;;;;;8.25;4.50;;;15.10;99.90;;;;;;5050514;28;20029;-68
2022/08/08 05:27:07;;;;;;;5.57;3.90;;;15.10;99.90;;;;;;5049208;28;20085;-68
2022/08/08 05:29:32;;;;;;;5.78;5.10;;;15.20;99.90;;;;;;5050270;28;20132;-68
2022/08/08 05:31:58;;;;;;;6.68;4.07;;;15.30;99.90;;;;;;5049307;28;20029;-68
2022/08/08 05:34:32;;;;;;;6.78;4.20;;;15.40;99.90;;;;;;5050343;28;20021;-68
2022/08/08 05:36:59;;;;;;;4.65;4.03;;;15.40;99.90;;;;;;5050723;28;20021;-68
2022/08/08 05:39:25;;;;;;;5.20;3.55;;;15.40;99.90;;;;;;5049219;28;20691;-68
2022/08/08 05:41:51;;;;;;;8.43;4.00;;;15.50;99.90;;;;;;5050435;28;20028;-68
2022/08/08 05:44:25;;;;;;;6.13;3.30;;;15.60;99.90;;;;;;5050308;28;20818;-68
2022/08/08 05:46:55;;;;;;;11.57;3.45;;;15.60;99.90;;;;;;5050506;28;20036;-68
2022/08/08 05:49:21;;;;;;;3.80;3.00;;;15.90;99.90;;;;;;5051656;28;20043;-68
2022/08/08 05:51:47;;;;;;;7.82;2.97;;;15.80;99.90;;;;;;5053410;28;20025;-68
2022/08/08 05:54:13;;;;;;;8.05;3.05;;;15.80;99.90;;;;;;5049891;28;20025;-69
2022/08/08 05:56:40;;;;;;;3.58;2.60;;;15.90;99.90;;;;;;5050683;28;20040;-69
2022/08/08 05:59:12;;;;;;;4.38;2.47;;;16.00;99.90;;;;;;5050430;28;20358;-69
2022/08/08 06:01:41;;;;;;;6.38;3.35;;;15.90;99.90;;;;;;5049881;28;20049;-68
2022/08/08 06:04:09;;;;;;;4.68;2.90;;;16.10;99.90;;;;;;5048830;28;20017;-69
2022/08/08 06:06:38;;;;;;;3.90;2.20;;;16.10;99.90;;;;;;5050298;28;20075;-68
2022/08/08 06:09:07;;;;;;;4.82;2.55;;;16.10;99.90;;;;;;5049564;28;20025;-68
2022/08/08 06:11:33;;;;;;;4.03;2.63;;;16.20;99.90;;;;;;5050302;28;20417;-69
2022/08/08 06:14:01;;;;;;;3.35;2.28;;;16.40;99.90;;;;;;5049925;28;20029;-68
2022/08/08 06:16:27;;;;;;;2.70;2.38;;;16.50;99.90;;;;;;5050101;28;20063;-68
2022/08/08 06:18:53;;;;;;;5.15;1.83;;;16.50;99.90;;;;;;5050026;28;20498;-69
2022/08/08 06:21:20;;;;;;;5.15;2.03;;;16.70;99.90;;;;;;5049827;28;20017;-69
2022/08/08 06:23:45;;;;;;;6.20;1.98;;;16.60;99.90;;;;;;5048391;28;20367;-68
2022/08/08 06:26:12;;;;;;;4.20;1.88;;;16.80;99.90;;;;;;5049569;28;20074;-68
2022/08/08 06:29:04;;;;;;;2.42;1.98;;;16.80;99.90;;;;;;5050187;28;20055;-68
2022/08/08 06:31:34;;;;;;;4.75;1.77;;;16.90;99.90;;;;;;5040600;28;20032;-68
2022/08/08 06:34:05;;;;;;;4.00;1.77;;;17.10;99.90;;;;;;5049794;28;20028;-68
2022/08/08 06:36:37;;;;;;;5.25;2.00;;;17.00;99.90;;;;;;5047627;28;20445;-69
2022/08/08 06:39:05;;;;;;;3.27;1.47;;;17.20;99.90;;;;;;5044412;28;20049;-68
2022/08/08 06:41:41;;;;;;;5.50;2.03;;;17.10;99.90;;;;;;5048089;28;20497;-69
2022/08/08 06:44:13;;;;;;;1.65;1.33;;;17.20;99.90;;;;;;5049748;28;20021;-69
2022/08/08 06:46:39;;;;;;;4.05;1.92;;;17.30;99.90;;;;;;5049957;28;20238;-69
2022/08/08 06:49:05;;;;;;;5.53;1.80;;;17.40;99.90;;;;;;5049666;28;20541;-68
2022/08/08 06:51:30;;;;;;;5.72;1.80;;;17.40;99.90;;;;;;5049076;28;20029;-69
2022/08/08 06:53:59;;;;;;;3.50;1.50;;;17.60;99.90;;;;;;5049100;28;20044;-69
2022/08/08 06:56:27;;;;;;;4.00;1.67;;;17.70;99.90;;;;;;5046306;28;20032;-69
2022/08/08 06:58:52;;;;;;;4.35;1.60;;;17.70;99.90;;;;;;5047378;28;20033;-69
2022/08/08 07:01:18;;;;;;;2.88;1.65;;;17.70;99.90;;;;;;5044666;28;20159;-69
2022/08/08 07:04:07;;;;;;;5.68;2.13;;;17.80;99.90;;;;;;5046942;28;20021;-69
2022/08/08 07:06:37;;;;;;;4.72;1.88;;;17.90;99.30;;;;;;5048823;28;20021;-69
2022/08/08 07:09:11;;;;;;;2.42;2.03;;;18.00;99.80;;;;;;5047212;28;20026;-69
2022/08/08 07:11:41;;;;;;;8.50;2.20;;;18.10;99.70;;;;;;5049440;28;20028;-69
2022/08/08 07:14:13;;;;;;;4.82;2.00;;;18.70;99.60;;;;;;5048796;28;20037;-69
2022/08/08 07:17:01;;;;;;;5.03;1.70;;;18.30;99.20;;;;;;5036924;28;20107;-68
2022/08/08 07:19:43;;;;;;;5.40;1.90;;;18.20;98.40;;;;;;5043716;28;20049;-69
2022/08/08 07:22:10;;;;;;;6.25;2.17;;;18.40;97.70;;;;;;5047628;28;20070;-69
2022/08/08 07:24:53;;;;;;;5.50;1.80;;;18.40;98.40;;;;;;5048760;28;20084;-69
2022/08/08 07:27:23;;;;;;;4.15;1.48;;;18.50;98.70;;;;;;5048127;28;20493;-69
2022/08/08 07:29:50;;;;;;;5.20;1.80;;;18.70;98.40;;;;;;5048144;28;20036;-69
2022/08/08 07:32:17;;;;;;;4.07;1.60;;;18.70;98.10;;;;;;5046993;28;20074;-69
2022/08/08 07:34:44;;;;;;;3.50;1.85;;;18.70;97.70;;;;;;5048778;28;20025;-69
2022/08/08 07:37:12;;;;;;;5.00;1.92;;;19.70;98.00;;;;;;5048441;28;20029;-69
2022/08/08 07:39:41;;;;;;;6.03;1.88;;;18.90;97.80;;;;;;5048184;28;20105;-71
2022/08/08 07:42:12;;;;;;;3.08;1.88;;;19.00;97.60;;;;;;5047559;28;20119;-70
2022/08/08 07:44:40;;;;;;;2.55;1.70;;;19.00;97.50;;;;;;5035690;28;20473;-71
2022/08/08 07:47:05;;;;;;;4.03;1.58;;;19.00;97.00;;;;;;5046754;28;20065;-71
2022/08/08 07:49:31;;;;;;;5.35;1.63;;;19.10;96.90;;;;;;5047004;28;20072;-70
2022/08/08 07:51:57;;;;;;;7.85;2.00;;;19.30;96.50;;;;;;5048222;28;20518;-69
2022/08/08 07:55:04;;;;;;;4.20;1.67;;;19.30;96.30;;;;;;5047214;28;20060;-71
2022/08/08 07:57:51;;;;;;;3.10;1.40;;;19.40;96.60;;;;;;5026114;28;20569;-69
2022/08/08 08:00:17;;;;;;;3.55;1.70;;;19.50;95.40;;;;;;5024053;28;20498;-70
2022/08/08 08:03:04;;;;;;;4.57;1.60;;;19.50;95.70;;;;;;5026359;28;20116;-70
2022/08/08 08:05:35;;;;;;;3.30;1.30;;;19.70;96.00;;;;;;5024804;28;20044;-69
2022/08/08 08:08:10;;;;;;;2.60;1.42;;;19.80;95.50;;;;;;5027861;28;20215;-70
2022/08/08 08:10:37;;;;;;;1.48;1.00;;;19.80;95.40;;;;;;5028795;28;20072;-70
2022/08/08 08:13:23;;;;;;;3.55;1.23;;;19.90;94.80;;;;;;5029444;28;20036;-70
2022/08/08 08:15:59;;;;;;;4.03;1.27;;;19.70;94.50;;;;;;5018447;28;20510;-71
2022/08/08 08:18:31;;;;;;;4.65;0.90;;;19.90;93.90;;;;;;5029343;28;20076;-71
2022/08/08 08:20:57;;;;;;;2.30;1.00;;;19.80;94.60;;;;;;5029010;28;20059;-70
2022/08/08 08:23:23;;;;;;;3.60;1.52;;;19.80;94.30;;;;;;5029058;28;20033;-70
2022/08/08 08:25:48;;;;;;;4.38;1.00;;;19.90;93.80;;;;;;5029224;28;20060;-70
2022/08/08 08:28:14;;;;;;;5.32;1.40;;;20.00;93.90;;;;;;5029201;28;20549;-69
2022/08/08 08:30:40;;;;;;;1.48;1.00;;;20.00;93.80;;;;;;5049750;28;20039;-69
2022/08/08 08:33:06;;;;;;;3.40;1.02;;;20.10;94.10;;;;;;5051411;28;20032;-70
2022/08/08 08:35:31;;;;;;;2.80;1.27;;;20.10;93.50;;;;;;5051682;28;20104;-69
2022/08/08 08:37:57;;;;;;;2.05;1.00;;;20.30;93.30;;;;;;5050636;28;20060;-69
2022/08/08 08:40:23;;;;;;;4.30;1.20;;;20.30;93.30;;;;;;5050626;28;20195;-69
2022/08/08 08:42:49;;;;;;;1.63;1.00;;;21.50;93.40;;;;;;5051807;28;20082;-70
2022/08/08 08:45:16;;;;;;;1.95;0.88;;;20.90;92.90;;;;;;5047592;28;20032;-69
2022/08/08 08:47:43;;;;;;;1.10;0.75;;;20.60;92.50;;;;;;5050831;28;20067;-70
2022/08/08 08:50:09;;;;;;;2.58;0.80;;;20.50;92.30;;;;;;5049509;28;20029;-70
2022/08/08 08:52:41;;;;;;;1.13;1.02;;;20.70;91.90;;;;;;5051462;28;20416;-70
2022/08/08 08:55:11;;;;;;;4.40;1.00;;;20.70;92.10;;;;;;5051333;28;20142;-70
2022/08/08 08:57:37;;;;;;;3.95;0.90;;;20.80;92.40;;;;;;5051820;28;20025;-70
2022/08/08 09:00:04;;;;;;;1.52;0.80;;;20.70;91.70;;;;;;5047552;28;20795;-70
2022/08/08 09:02:33;;;;;;;1.17;0.88;;;20.90;91.00;;;;;;5050317;28;20762;-70
2022/08/08 09:05:03;;;;;;;4.82;1.30;;;20.90;90.90;;;;;;5050686;28;20036;-70
2022/08/08 09:07:33;;;;;;;2.05;0.70;;;21.00;91.10;;;;;;5040403;28;20071;-70
2022/08/08 09:09:59;;;;;;;2.53;0.50;;;21.60;91.40;;;;;;5048510;28;20047;-70
2022/08/08 09:12:26;;;;;;;1.88;0.82;;;21.10;90.90;;;;;;5050345;28;20017;-70
2022/08/08 09:14:55;;;;;;;2.42;0.60;;;21.30;90.80;;;;;;5051127;28;20039;-70
2022/08/08 09:17:23;;;;;;;1.75;0.60;;;21.40;89.70;;;;;;5038054;28;20474;-70
2022/08/08 09:19:55;;;;;;;2.00;0.80;;;21.30;88.50;;;;;;5047774;28;20021;-70
2022/08/08 09:22:21;;;;;;;3.33;0.73;;;21.40;87.30;;;;;;5046378;28;20128;-70
2022/08/08 09:24:51;;;;;;;2.97;0.63;;;21.60;89.00;;;;;;5046996;28;20032;-70
2022/08/08 09:27:18;;;;;;;1.50;0.70;;;21.60;88.90;;;;;;5048576;28;20108;-70
2022/08/08 09:29:53;;;;;;;4.47;0.70;;;21.70;87.80;;;;;;5046816;28;20021;-70
2022/08/08 09:32:34;;;;;;;1.23;0.80;;;21.90;85.70;;;;;;5048300;28;20164;-70
2022/08/08 09:35:02;;;;;;;2.22;0.68;;;22.00;86.70;;;;;;5048085;28;20167;-70
2022/08/08 09:37:35;;;;;;;1.40;0.50;;;22.00;85.30;;;;;;5048269;28;20021;-70
2022/08/08 09:40:03;;;;;;;1.25;0.60;;;22.00;85.70;;;;;;5044400;28;20029;-68
2022/08/08 09:42:34;;;;;;;2.05;0.75;;;22.20;85.30;;;;;;5040130;28;20120;-68
2022/08/08 09:45:25;;;;;;;1.80;0.63;;;22.50;85.70;;;;;;5047750;28;20040;-69
2022/08/08 09:47:52;;;;;;;1.70;0.52;;;22.30;83.50;;;;;;5049452;28;20060;-69
2022/08/08 09:50:22;;;;;;;0.70;0.40;;;22.40;84.90;;;;;;5048093;28;20024;-69
2022/08/08 09:52:50;;;;;;;1.92;0.60;;;22.40;84.80;;;;;;5046019;28;20075;-69
2022/08/08 09:55:16;;;;;;;3.53;1.00;;;22.60;84.90;;;;;;5044356;28;20489;-68
2022/08/08 09:57:47;;;;;;;1.25;0.80;;;22.50;84.30;;;;;;5046655;28;20154;-69
2022/08/08 10:00:16;;;;;;;5.32;1.90;;;22.80;83.70;;;;;;5046284;28;20041;-68
2022/08/08 10:02:51;;;;;;;1.58;0.70;;;22.70;83.30;;;;;;5043140;28;20490;-69
2022/08/08 10:05:20;;;;;;;3.20;0.60;;;22.70;83.50;;;;;;5037101;28;20030;-69
2022/08/08 10:07:51;;;;;;;1.55;0.60;;;22.60;83.40;;;;;;5047299;28;20040;-69
2022/08/08 10:10:35;;;;;;;2.83;0.70;;;22.90;81.50;;;;;;5047999;28;20025;-69
2022/08/08 10:13:14;;;;;;;1.30;1.13;;;23.10;81.20;;;;;;5048161;28;20050;-70
2022/08/08 10:15:42;;;;;;;1.60;0.55;;;23.10;82.00;;;;;;5046005;28;20064;-70
2022/08/08 10:18:08;;;;;;;1.50;0.88;;;23.30;80.60;;;;;;5040468;28;20090;-70
2022/08/08 10:20:42;;;;;;;2.15;0.80;;;23.30;80.90;;;;;;5047735;28;20410;-69
2022/08/08 10:23:08;;;;;;;1.70;0.50;;;23.30;80.80;;;;;;5049081;28;20120;-70
2022/08/08 10:25:36;;;;;;;2.80;0.57;;;23.30;79.90;;;;;;5044064;28;20016;-69
2022/08/08 10:28:02;;;;;;;2.25;0.40;;;23.30;80.00;;;;;;5046968;28;20013;-71
2022/08/08 10:30:28;;;;;;;1.00;0.60;;;23.20;79.60;;;;;;5046265;28;20029;-70
2022/08/08 10:32:56;;;;;;;5.60;0.50;;;23.50;79.50;;;;;;5039795;28;20090;-69
2022/08/08 10:35:24;;;;;;;1.55;0.50;;;23.40;80.30;;;;;;5047967;28;20056;-70
2022/08/08 10:37:50;;;;;;;2.05;1.05;;;23.60;80.30;;;;;;5043170;28;20122;-70
2022/08/08 10:40:16;;;;;;;2.65;1.05;;;23.70;79.30;;;;;;5047575;28;20477;-69
2022/08/08 10:42:42;;;;;;;4.13;1.00;;;23.60;79.20;;;;;;5049081;28;20033;-69
2022/08/08 10:45:09;;;;;;;3.85;0.75;;;23.50;78.60;;;;;;5048283;28;20027;-70
2022/08/08 10:47:36;;;;;;;0.93;0.55;;;23.40;79.40;;;;;;5046392;28;20094;-69
2022/08/08 10:50:05;;;;;;;1.73;0.50;;;23.40;79.40;;;;;;5046771;28;20095;-69
2022/08/08 10:52:38;;;;;;;1.65;1.08;;;23.30;79.00;;;;;;5044160;28;20036;-70
2022/08/08 10:55:05;;;;;;;2.47;0.50;;;23.20;77.70;;;;;;5048965;28;20033;-69
2022/08/08 10:57:39;;;;;;;2.47;0.60;;;23.20;79.30;;;;;;5049360;28;20021;-69
2022/08/08 11:00:09;;;;;;;2.83;0.65;;;23.20;79.70;;;;;;5042367;28;20040;-68
2022/08/08 11:02:35;;;;;;;2.58;0.63;;;23.20;78.90;;;;;;5049581;28;20029;-69
2022/08/08 11:05:07;;;;;;;3.25;1.10;;;23.20;79.30;;;;;;5049170;28;20363;-68
2022/08/08 11:07:36;;;;;;;2.13;0.50;;;23.20;77.50;;;;;;5049413;28;20029;-69
2022/08/08 11:10:11;;;;;;;1.35;0.50;;;23.40;79.00;;;;;;5048261;28;20025;-69
2022/08/08 11:12:55;;;;;;;1.67;0.50;;;23.60;79.40;;;;;;5039497;28;20025;-69
2022/08/08 11:15:23;;;;;;;1.73;0.50;;;23.70;76.50;;;;;;5043894;28;20104;-69
2022/08/08 11:17:49;;;;;;;3.78;0.88;;;23.60;77.50;;;;;;5049347;28;20096;-69
2022/08/08 11:20:18;;;;;;;2.17;0.70;;;24.40;77.50;;;;;;5047774;28;20383;-69
2022/08/08 11:22:50;;;;;;;2.53;0.50;;;23.60;77.20;;;;;;5046530;28;20044;-69
2022/08/08 11:25:16;;;;;;;1.30;0.60;;;23.80;77.00;;;;;;5040268;28;20108;-69
2022/08/08 11:27:45;;;;;;;3.47;1.08;;;23.70;76.50;;;;;;5046824;28;20120;-71
2022/08/08 11:30:11;;;;;;;2.35;0.60;;;23.70;77.00;;;;;;5047733;28;20056;-69
2022/08/08 11:32:40;;;;;;;2.83;0.70;;;23.70;76.00;;;;;;5048590;28;20063;-71
2022/08/08 11:35:11;;;;;;;2.95;0.65;;;23.30;76.30;;;;;;5044817;28;20055;-70
2022/08/08 11:37:39;;;;;;;2.45;0.60;;;23.50;75.00;;;;;;5048623;28;20017;-70
2022/08/08 11:40:08;;;;;;;1.08;0.40;;;23.20;77.10;;;;;;5049255;28;20036;-70
2022/08/08 11:42:34;;;;;;;3.47;0.55;;;23.60;77.00;;;;;;5052234;28;20029;-70
2022/08/08 11:45:01;;;;;;;1.83;0.50;;;23.50;76.70;;;;;;5050201;28;20461;-70
2022/08/08 11:47:26;;;;;;;2.72;0.60;;;24.30;76.40;;;;;;5046786;28;20474;-71
2022/08/08 11:49:58;;;;;;;1.45;0.55;;;24.00;75.10;;;;;;5040971;28;20040;-71
2022/08/08 11:52:24;;;;;;;1.60;0.63;;;24.10;75.00;;;;;;5051251;28;20063;-71
2022/08/08 11:54:50;;;;;;;1.88;0.43;;;24.10;74.30;;;;;;5051884;28;20078;-71
2022/08/08 11:57:22;;;;;;;4.88;0.82;;;24.10;74.40;;;;;;5050412;28;20032;-70
2022/08/08 11:59:52;;;;;;;1.50;0.75;;;24.10;74.50;;;;;;5046620;28;20025;-71
2022/08/08 12:02:17;;;;;;;0.60;0.40;;;24.10;74.40;;;;;;5052322;28;20759;-70
2022/08/08 12:04:43;;;;;;;2.05;0.60;;;25.00;73.70;;;;;;5049828;28;20037;-70
2022/08/08 12:07:09;;;;;;;0.70;0.52;;;23.90;73.40;;;;;;5044071;28;20029;-70
2022/08/08 12:09:34;;;;;;;0.68;0.50;;;24.90;74.70;;;;;;5045567;28;20033;-70
2022/08/08 12:12:00;;;;;;;1.60;0.70;;;23.90;74.20;;;;;;5043600;28;20037;-71
2022/08/08 12:14:27;;;;;;;1.48;0.57;;;24.10;74.00;;;;;;5052079;28;20112;-71
2022/08/08 12:16:53;;;;;;;4.00;0.60;;;24.20;74.60;;;;;;5050453;28;20032;-71
2022/08/08 12:19:24;;;;;;;4.57;0.80;;;26.10;76.60;;;;;;5050342;28;20039;-71
2022/08/08 12:21:50;;;;;;;1.75;0.60;;;24.00;75.60;;;;;;5046795;28;20022;-71
2022/08/08 12:24:21;;;;;;;2.65;0.73;;;24.10;74.80;;;;;;5050770;28;20973;-71
2022/08/08 12:26:48;;;;;;;1.52;0.60;;;24.10;74.40;;;;;;5049384;28;20100;-70
2022/08/08 12:29:26;;;;;;;0.55;0.40;;;24.30;74.30;;;;;;5049113;28;20044;-71
2022/08/08 12:32:14;;;;;;;2.25;0.40;;;24.10;74.50;;;;;;5045232;28;20096;-71
2022/08/08 12:34:44;;;;;;;1.42;0.50;;;24.40;72.30;;;;;;5052084;28;20028;-71
2022/08/08 12:37:20;;;;;;;1.13;0.38;;;24.60;73.10;;;;;;5047163;28;20033;-71
2022/08/08 12:39:46;;;;;;;4.25;0.80;;;25.80;73.60;;;;;;5049122;28;20025;-72
2022/08/08 12:42:11;;;;;;;2.08;0.43;;;24.60;71.30;;;;;;5050995;28;20028;-71
2022/08/08 12:44:39;;;;;;;1.35;0.63;;;24.80;71.50;;;;;;5051559;28;20032;-71
2022/08/08 12:47:06;;;;;;;2.30;0.50;;;24.50;71.50;;;;;;5048301;28;20029;-71
2022/08/08 12:49:34;;;;;;;0.60;0.40;;;24.70;71.90;;;;;;5049057;28;20135;-71
2022/08/08 12:52:00;;;;;;;1.13;0.50;;;24.50;72.30;;;;;;5047337;28;20047;-71
2022/08/08 12:54:28;;;;;;;0.52;0.50;;;24.60;71.70;;;;;;5048523;28;20363;-71
2022/08/08 12:56:54;;;;;;;2.13;0.50;;;24.70;72.20;;;;;;5050995;28;20435;-71
2022/08/08 12:59:53;;;;;;;1.25;0.65;;;25.30;72.50;;;;;;5050667;28;20107;-71
2022/08/08 13:02:26;;;;;;;2.22;0.65;;;24.30;72.50;;;;;;5047336;28;20409;-70
2022/08/08 13:04:54;;;;;;;1.88;0.80;;;24.50;72.70;;;;;;5044097;28;20056;-70
2022/08/08 13:07:20;;;;;;;2.88;0.90;;;24.50;72.20;;;;;;5050977;28;20080;-70
2022/08/08 13:09:57;;;;;;;1.90;0.57;;;24.70;71.80;;;;;;5043042;28;20041;-72
2022/08/08 13:12:44;;;;;;;1.50;0.47;;;24.70;71.90;;;;;;5035526;28;20025;-69
2022/08/08 13:15:15;;;;;;;1.42;0.40;;;25.00;69.90;;;;;;5050717;28;20025;-70
2022/08/08 13:17:42;;;;;;;1.95;0.50;;;25.20;71.10;;;;;;5050473;28;20048;-70
2022/08/08 13:20:18;;;;;;;1.63;0.50;;;25.20;70.40;;;;;;5043659;28;20029;-71
2022/08/08 13:22:45;;;;;;;2.10;0.50;;;25.30;69.10;;;;;;5048169;28;20017;-71
2022/08/08 13:25:15;;;;;;;1.92;0.30;;;25.30;69.60;;;;;;5045676;28;20048;-71